Terminal Aerodrome Forecast
Issued by NWS

Home | Current Version | Previous Version | Graphics & Text | Print | Product List | Glossary On
Versions: 1 2 3 4 5 6 7 8 9 10 11 12 13 14 15 16 17 18 19 20 21 22 23 24 25 26 27 28 29 30 31 32 33 34 35 36 37
000
FTUS43 KPAH 291738
TAFOWB
TAF
KOWB 291738Z 2918/3018 12011G17KT P6SM SCT030 BKN250
     FM292300 11009KT P6SM BKN050
     FM301100 16010KT 5SM -TSRA BR BKN035CB
     FM301600 18014G22KT P6SM BKN035=

USA.gov is the U.S. government's official web portal to all federal, state and local government web resources and services.